Thursday, April 24, 2014, 2:41 PM EDT
Back to Local

KCXY, Harrisburg Capital City

Location: New Cumberland, PA, United States Lat: 40.217
Local Time: 2:41 PM EDT (18:41 GMT) Lon: -76.85
Time Zone: US/Eastern Elev: 347 ft

Show me the last for .
Show Decoded

2014-04-24 13:56 METAR KCXY 241756Z 34004KT 10SM CLR 14/M09 A3004 RMK AO2 SLP173 T01441094 10144
                 20067 58023 =
2014-04-24 12:56 METAR KCXY 241656Z 33010G15KT 10SM CLR 13/M09 A3006 RMK AO2 SLP183 T01281089 =
2014-04-24 11:56 METAR KCXY 241556Z 32006KT 10SM CLR 12/M09 A3009 RMK AO2 SLP192 T01171094 =
2014-04-24 10:56 METAR KCXY 241456Z 33007KT 10SM CLR 11/M09 A3010 RMK AO2 SLP196 T01061089 50006
                 =
2014-04-24 09:56 METAR KCXY 241356Z 34009KT 10SM CLR 09/M09 A3011 RMK AO2 SLP198 T00891094 =
2014-04-24 08:56 METAR KCXY 241256Z 33009G19KT 10SM CLR 08/M08 A3011 RMK AO2 SLP198 T00781083 =
2014-04-24 07:56 METAR KCXY 241156Z 31007KT 10SM CLR 07/M08 A3009 RMK AO2 SLP190 T00671083 10078
                 20044 51027 =
2014-04-24 06:56 METAR KCXY 241056Z 29006KT 10SM CLR 04/M07 A3007 RMK AO2 SLP184 T00441072 =
2014-04-24 05:56 METAR KCXY 240956Z AUTO 30006KT 10SM CLR 06/M08 A3003 RMK AO2 SLP173 T00561078 =
2014-04-24 04:56 METAR KCXY 240856Z AUTO 32010G16KT 10SM CLR 07/M07 A3001 RMK AO2 SLP163
                 T00671072 53007 =
2014-04-24 03:56 METAR KCXY 240756Z AUTO 31009KT 10SM CLR 07/M05 A2999 RMK AO2 SLP157 T00671050 =
2014-04-24 02:56 METAR KCXY 240656Z AUTO 31012KT 10SM CLR 07/M05 A2998 RMK AO2 SLP154 T00721050 =
2014-04-24 01:56 METAR KCXY 240556Z AUTO 31008KT 10SM CLR 07/M04 A2998 RMK AO2 SLP156 T00721039
                 10083 20067 53008 =
2014-04-24 00:56 METAR KCXY 240456Z AUTO 29008KT 10SM CLR 07/M04 A2997 RMK AO2 SLP152 T00721039
                 401390072 =
2014-04-23 23:56 METAR KCXY 240356Z AUTO 29009KT 10SM CLR 08/M03 A2997 RMK AO2 SLP149 T00781028 =
2014-04-23 22:56 METAR KCXY 240256Z AUTO 28009KT 10SM CLR 07/M02 A2996 RMK AO2 SLP147 T00721022
                 51014 =
2014-04-23 21:56 METAR KCXY 240156Z AUTO 27009KT 10SM CLR 07/M02 A2995 RMK AO2 SLP145 T00721017 =
2014-04-23 20:56 METAR KCXY 240056Z AUTO 29011KT 10SM CLR 08/M02 A2994 RMK AO2 SLP140 T00781022 =
2014-04-23 19:56 METAR KCXY 232356Z 29019G26KT 10SM SCT047 08/M01 A2992 RMK AO2 PK WND 31030/2257
                 SLP133 T00831011 10139 20083 53025 =
2014-04-23 18:56 METAR KCXY 232256Z 30022G29KT 10SM BKN043 09/00 A2989 RMK AO2 PK WND 30033/2237
                 SLP122 T00940000 =
2014-04-23 17:56 METAR KCXY 232156Z 29020G29KT 10SM BKN045 11/01 A2986 RMK AO2 PK WND 30029/2150
                 SLP114 T01060006 =
2014-04-23 16:56 METAR KCXY 232056Z 32018G29KT 10SM FEW043 11/01 A2984 RMK AO2 PK WND 32034/2041
                 SLP108 T01110006 51014 =
2014-04-23 15:56 METAR KCXY 231956Z 31016G24KT 10SM BKN045 11/01 A2984 RMK AO2 PK WND 30027/1859
                 SLP105 T01110011 =

Support USWX by starting your Amazon purchase here.